createdAt,value
2023-03-03T00:01:17.181Z,24.77
2023-03-03T00:03:44.124Z,25.50
2023-03-03T00:06:13.164Z,24.60
2023-03-03T00:08:40.795Z,26.23
2023-03-03T00:11:07.836Z,24.85
2023-03-03T00:13:44.009Z,23.95
2023-03-03T00:16:24.391Z,25.60
2023-03-03T00:18:52.024Z,23.92
2023-03-03T00:21:46.157Z,25.63
2023-03-03T00:24:21.887Z,24.17
2023-03-03T00:27:02.245Z,23.85
2023-03-03T00:29:45.783Z,22.90
2023-03-03T00:32:12.547Z,24.00
2023-03-03T00:34:39.360Z,24.92
2023-03-03T00:37:23.617Z,24.02
2023-03-03T00:39:50.410Z,24.85
2023-03-03T00:42:18.790Z,25.13
2023-03-03T00:44:59.295Z,26.48
2023-03-03T00:47:39.119Z,24.42
2023-03-03T00:50:05.843Z,23.05
2023-03-03T00:52:38.576Z,24.58
2023-03-03T00:55:06.813Z,23.73
2023-03-03T00:57:33.832Z,25.05
2023-03-03T01:00:01.127Z,24.15
2023-03-03T01:02:29.528Z,23.75
2023-03-03T01:04:56.423Z,24.17
2023-03-03T01:07:23.728Z,24.60
2023-03-03T01:09:50.513Z,24.88
2023-03-03T01:12:17.400Z,23.85
2023-03-03T01:14:45.342Z,24.30
2023-03-03T01:17:12.753Z,23.92
2023-03-03T01:19:39.738Z,24.20
2023-03-03T01:22:06.532Z,23.58
2023-03-03T01:24:33.503Z,23.65
2023-03-03T01:27:00.417Z,24.80
2023-03-03T01:29:27.320Z,23.85
2023-03-03T01:31:54.127Z,24.27
2023-03-03T01:34:21.964Z,23.05
2023-03-03T01:36:48.834Z,25.30
2023-03-03T01:39:15.544Z,24.95
2023-03-03T01:41:42.271Z,23.55
2023-03-03T01:44:15.539Z,23.48
2023-03-03T01:46:53.740Z,24.38
2023-03-03T01:49:30.532Z,24.92
2023-03-03T01:52:01.180Z,23.73
2023-03-03T01:54:38.472Z,23.92
2023-03-03T01:57:11.308Z,25.65
2023-03-03T02:02:08.635Z,25.13
2023-03-03T02:04:35.968Z,24.75
2023-03-03T02:07:09.907Z,24.38
2023-03-03T02:09:58.774Z,24.33
2023-03-03T02:12:34.307Z,24.30
2023-03-03T02:15:01.062Z,24.35
2023-03-03T02:17:27.860Z,24.10
2023-03-03T02:20:01.504Z,24.33
2023-03-03T02:22:55.409Z,23.23
2023-03-03T02:25:52.463Z,24.45
2023-03-03T02:28:19.469Z,23.40
2023-03-03T02:30:48.788Z,25.02
2023-03-03T02:33:15.790Z,25.60
2023-03-03T02:35:43.006Z,25.77
2023-03-03T02:38:29.526Z,24.48
2023-03-03T02:41:03.287Z,22.45
2023-03-03T02:43:36.808Z,25.13
2023-03-03T02:46:03.799Z,26.20
2023-03-03T02:48:30.646Z,24.33
2023-03-03T02:50:58.536Z,25.45
2023-03-03T02:53:25.263Z,25.38
2023-03-03T02:55:53.339Z,25.58
2023-03-03T02:58:20.157Z,24.48
2023-03-03T03:00:47.707Z,25.08
2023-03-03T03:03:18.127Z,24.15
2023-03-03T03:05:45.308Z,25.75
2023-03-03T03:08:12.230Z,25.92
2023-03-03T03:10:39.448Z,25.95
2023-03-03T03:13:06.593Z,25.63
2023-03-03T03:15:35.877Z,26.50
2023-03-03T03:18:04.259Z,26.17
2023-03-03T03:20:31.824Z,26.15
2023-03-03T03:22:58.665Z,25.00
2023-03-03T03:25:25.641Z,24.88
2023-03-03T03:27:52.416Z,25.55
2023-03-03T03:30:20.767Z,25.92
2023-03-03T03:32:48.220Z,26.27
2023-03-03T03:35:17.233Z,24.70
2023-03-03T03:37:44.885Z,26.38
2023-03-03T03:40:12.151Z,25.17
2023-03-03T03:42:39.579Z,25.50
2023-03-03T03:45:07.133Z,24.08
2023-03-03T03:47:34.036Z,25.05
2023-03-03T03:50:00.802Z,26.65
2023-03-03T03:52:28.441Z,24.55
2023-03-03T03:54:55.163Z,24.92
2023-03-03T03:57:22.143Z,25.58
2023-03-03T03:59:50.265Z,26.15
2023-03-03T04:02:17.596Z,27.15
2023-03-03T04:04:44.700Z,27.67
2023-03-03T04:07:12.904Z,26.80
2023-03-03T04:09:39.925Z,26.25
2023-03-03T04:12:07.384Z,26.02
2023-03-03T04:14:35.073Z,26.02
2023-03-03T04:17:01.905Z,26.00
2023-03-03T04:19:28.646Z,27.15
2023-03-03T04:21:55.824Z,26.63
2023-03-03T04:24:22.777Z,26.67
2023-03-03T04:26:51.292Z,26.02
2023-03-03T04:29:18.296Z,29.52
2023-03-03T04:31:45.091Z,28.40
2023-03-03T04:34:12.123Z,26.52
2023-03-03T04:36:39.343Z,27.23
2023-03-03T04:39:06.504Z,28.02
2023-03-03T04:41:33.277Z,28.83
2023-03-03T04:44:00.082Z,27.55
2023-03-03T04:46:27.060Z,28.08
2023-03-03T04:48:53.895Z,28.27
2023-03-03T04:51:20.785Z,27.65
2023-03-03T04:53:47.570Z,27.60
2023-03-03T04:56:14.868Z,28.85
2023-03-03T04:58:41.912Z,28.20
2023-03-03T05:01:13.043Z,28.17
2023-03-03T05:03:40.307Z,29.10
2023-03-03T05:06:07.772Z,27.52
2023-03-03T05:08:34.467Z,29.63
2023-03-03T05:11:02.295Z,27.13
2023-03-03T05:13:29.360Z,29.52
2023-03-03T05:15:56.519Z,29.17
2023-03-03T05:18:24.998Z,27.25
2023-03-03T05:20:52.798Z,27.83
2023-03-03T05:23:20.147Z,29.13
2023-03-03T05:25:50.297Z,27.73
2023-03-03T05:28:17.909Z,29.05
2023-03-03T05:30:44.748Z,30.33
2023-03-03T05:33:14.621Z,29.23
2023-03-03T05:35:41.474Z,28.75
2023-03-03T05:38:08.316Z,28.50
2023-03-03T05:40:35.125Z,27.50
2023-03-03T05:43:01.986Z,29.20
2023-03-03T05:45:28.793Z,29.38
2023-03-03T05:47:55.501Z,29.65
2023-03-03T05:50:23.537Z,29.17
2023-03-03T05:52:51.915Z,26.42
2023-03-03T05:55:19.696Z,27.25
2023-03-03T05:57:46.489Z,28.10
2023-03-03T06:00:14.758Z,26.83
2023-03-03T06:02:42.099Z,28.00
2023-03-03T06:05:09.593Z,27.27
2023-03-03T06:07:36.362Z,28.05
2023-03-03T06:10:04.189Z,27.67
2023-03-03T06:12:33.810Z,25.67
2023-03-03T06:15:00.546Z,27.10
2023-03-03T06:17:27.260Z,26.95
2023-03-03T06:19:54.074Z,27.58
2023-03-03T06:22:20.845Z,28.10
2023-03-03T06:24:47.566Z,27.77
2023-03-03T06:27:14.333Z,28.13
2023-03-03T06:29:41.088Z,27.92
2023-03-03T06:32:07.915Z,27.65
2023-03-03T06:34:34.871Z,28.95
2023-03-03T06:37:01.784Z,28.15
2023-03-03T06:39:28.605Z,29.08
2023-03-03T06:41:55.479Z,27.77
2023-03-03T06:44:22.347Z,27.58
2023-03-03T06:46:49.108Z,28.35
2023-03-03T06:49:15.846Z,29.20
2023-03-03T06:51:43.889Z,28.33
2023-03-03T06:54:16.860Z,28.13
2023-03-03T06:56:45.562Z,29.25
2023-03-03T06:59:20.318Z,28.75
2023-03-03T07:01:49.241Z,29.92
2023-03-03T07:04:19.335Z,28.17
2023-03-03T07:06:47.454Z,28.20
2023-03-03T07:09:29.659Z,28.25
2023-03-03T07:12:02.319Z,28.85
2023-03-03T07:14:30.510Z,28.55
2023-03-03T07:17:00.523Z,28.30
2023-03-03T07:19:37.126Z,27.27
2023-03-03T07:22:17.123Z,27.73
2023-03-03T07:24:46.508Z,28.42
2023-03-03T07:27:22.750Z,28.33
2023-03-03T07:29:51.619Z,27.55
2023-03-03T07:32:45.020Z,26.95
2023-03-03T07:37:53.919Z,25.77
2023-03-03T07:40:37.264Z,26.90
2023-03-03T07:45:51.221Z,27.23
2023-03-03T07:48:30.378Z,29.00
2023-03-03T07:51:04.395Z,27.48
2023-03-03T07:53:34.945Z,25.27
2023-03-03T07:56:01.936Z,27.30
2023-03-03T08:01:40.925Z,25.45
2023-03-03T08:04:21.073Z,26.23
2023-03-03T08:06:53.375Z,25.83
2023-03-03T08:09:20.155Z,24.85
2023-03-03T08:11:52.067Z,25.38
2023-03-03T08:14:27.439Z,25.73
2023-03-03T08:16:55.725Z,25.75
2023-03-03T08:19:22.733Z,26.48
2023-03-03T08:21:49.436Z,26.40
2023-03-03T08:24:16.214Z,26.38
2023-03-03T08:26:43.881Z,26.92
2023-03-03T08:29:11.966Z,26.38
2023-03-03T08:31:41.780Z,26.40
2023-03-03T08:34:09.246Z,26.38
2023-03-03T08:36:36.210Z,26.33
2023-03-03T08:39:09.486Z,26.33
2023-03-03T08:41:36.450Z,27.27
2023-03-03T08:44:03.314Z,27.98
2023-03-03T08:46:30.165Z,27.38
2023-03-03T08:48:57.027Z,26.48
2023-03-03T08:51:25.223Z,26.08
2023-03-03T08:53:52.207Z,26.63
2023-03-03T08:56:18.952Z,24.83
2023-03-03T08:59:01.211Z,25.15
2023-03-03T09:03:55.671Z,24.95
2023-03-03T09:06:22.479Z,27.10
2023-03-03T09:08:50.395Z,25.25
2023-03-03T09:11:24.669Z,25.58
2023-03-03T09:13:53.365Z,26.80
2023-03-03T09:16:22.399Z,27.38
2023-03-03T09:18:50.744Z,26.13
2023-03-03T09:21:32.794Z,26.67
2023-03-03T09:24:00.705Z,27.33
2023-03-03T09:26:30.377Z,25.50
2023-03-03T09:29:15.266Z,25.52
2023-03-03T09:31:52.649Z,26.25
2023-03-03T09:34:37.402Z,27.52
2023-03-03T09:37:23.675Z,27.70
2023-03-03T09:39:53.328Z,27.48
2023-03-03T09:42:48.117Z,28.27
2023-03-03T09:45:52.386Z,27.02
2023-03-03T09:48:30.527Z,28.52
2023-03-03T09:51:16.275Z,26.25
2023-03-03T09:54:13.654Z,26.00
2023-03-03T09:56:49.159Z,27.73
2023-03-03T09:59:43.886Z,26.73
2023-03-03T10:02:31.626Z,26.95
2023-03-03T10:05:35.773Z,25.10
2023-03-03T10:08:20.596Z,26.70
2023-03-03T10:11:13.874Z,25.60
2023-03-03T10:13:59.150Z,25.65
2023-03-03T10:16:49.020Z,26.17
2023-03-03T10:19:46.435Z,26.20
2023-03-03T10:22:45.380Z,26.10
2023-03-03T10:25:50.175Z,25.17
2023-03-03T10:28:51.219Z,25.95
2023-03-03T10:31:36.590Z,24.67
2023-03-03T10:34:19.706Z,24.67
2023-03-03T10:37:15.456Z,26.38
2023-03-03T10:40:00.199Z,25.52
2023-03-03T10:43:01.001Z,24.20
2023-03-03T10:45:39.511Z,25.30
2023-03-03T10:48:34.926Z,25.60
2023-03-03T10:51:13.352Z,24.80
2023-03-03T10:54:06.130Z,24.52
2023-03-03T10:56:53.203Z,23.02
2023-03-03T10:59:45.219Z,26.40
2023-03-03T11:02:25.421Z,23.80
2023-03-03T11:05:00.208Z,24.70
2023-03-03T11:07:35.583Z,25.20
2023-03-03T11:10:20.265Z,24.25
2023-03-03T11:13:10.814Z,22.67
2023-03-03T11:16:04.723Z,23.80
2023-03-03T11:18:54.008Z,24.27
2023-03-03T11:21:49.361Z,24.45
2023-03-03T11:24:41.178Z,23.25
2023-03-03T11:27:16.408Z,21.00
2023-03-03T11:30:08.210Z,21.88
2023-03-03T11:33:01.308Z,20.25
2023-03-03T11:35:57.908Z,21.67
2023-03-03T11:38:32.789Z,19.38
2023-03-03T11:41:07.065Z,20.05
2023-03-03T11:43:49.196Z,19.55
2023-03-03T11:46:25.531Z,19.42
2023-03-03T11:49:11.901Z,19.85
2023-03-03T11:51:53.970Z,18.98
2023-03-03T11:54:27.503Z,19.55
2023-03-03T11:57:19.227Z,19.92
2023-03-03T12:00:14.490Z,19.20
2023-03-03T12:02:56.640Z,19.15
2023-03-03T12:05:38.775Z,18.70
2023-03-03T12:08:14.125Z,20.25
2023-03-03T12:10:47.204Z,20.83
2023-03-03T12:16:01.569Z,19.20
2023-03-03T12:18:32.452Z,19.55
2023-03-03T12:21:21.781Z,17.88
2023-03-03T12:24:10.133Z,19.58
2023-03-03T12:27:07.746Z,20.13
2023-03-03T12:29:57.386Z,19.27
2023-03-03T12:32:50.628Z,20.75
2023-03-03T12:35:41.306Z,20.27
2023-03-03T12:38:44.653Z,20.02
2023-03-03T12:41:43.848Z,20.15
2023-03-03T12:44:33.555Z,19.08
2023-03-03T12:47:04.421Z,20.95
2023-03-03T12:49:52.100Z,20.38
2023-03-03T12:52:50.790Z,19.73
2023-03-03T12:55:40.128Z,19.25
2023-03-03T12:58:30.095Z,21.05
2023-03-03T13:01:02.780Z,19.05
2023-03-03T13:03:55.041Z,19.48
2023-03-03T13:06:32.225Z,18.90
2023-03-03T13:09:28.844Z,18.98
2023-03-03T13:12:22.989Z,19.40
2023-03-03T13:14:56.966Z,18.58
2023-03-03T13:17:38.935Z,18.17
2023-03-03T13:20:22.716Z,18.48
2023-03-03T13:23:09.396Z,18.80
2023-03-03T13:25:39.347Z,17.90
2023-03-03T13:28:26.211Z,17.25
2023-03-03T13:31:18.904Z,17.80
2023-03-03T13:33:56.177Z,19.10
2023-03-03T13:36:38.986Z,17.60
2023-03-03T13:39:18.042Z,18.90
2023-03-03T13:42:06.055Z,17.95
2023-03-03T13:44:42.769Z,18.00
2023-03-03T13:47:36.206Z,19.15
2023-03-03T13:50:18.404Z,18.02
2023-03-03T13:53:05.693Z,18.27
2023-03-03T13:55:58.538Z,17.60
2023-03-03T13:58:36.978Z,18.25
2023-03-03T14:01:17.720Z,16.85
2023-03-03T14:04:02.276Z,18.70
2023-03-03T14:06:30.361Z,19.00
2023-03-03T14:09:40.287Z,17.77
2023-03-03T14:12:29.557Z,19.00
2023-03-03T14:15:04.364Z,19.23
2023-03-03T14:18:20.205Z,17.73
2023-03-03T14:20:53.022Z,17.63
2023-03-03T14:23:26.940Z,17.63
2023-03-03T14:25:56.620Z,18.13
2023-03-03T14:28:25.909Z,18.48
2023-03-03T14:30:57.874Z,18.02
2023-03-03T14:33:31.571Z,18.48
2023-03-03T14:35:58.440Z,18.02
2023-03-03T14:38:38.491Z,18.25
2023-03-03T14:41:11.651Z,18.85
2023-03-03T14:46:33.899Z,18.80
2023-03-03T14:49:04.182Z,17.80
2023-03-03T14:51:47.757Z,19.23
2023-03-03T14:54:28.275Z,18.50
2023-03-03T14:57:02.120Z,19.20
2023-03-03T14:59:30.258Z,18.65
2023-03-03T15:02:01.502Z,18.65
2023-03-03T15:04:31.141Z,18.40
2023-03-03T15:06:59.084Z,19.42
2023-03-03T15:09:35.859Z,19.05
2023-03-03T15:12:19.686Z,20.52
2023-03-03T15:14:49.431Z,20.58
2023-03-03T15:17:36.671Z,18.00
2023-03-03T15:20:26.377Z,19.77
2023-03-03T15:23:21.442Z,18.88
2023-03-03T15:26:19.729Z,17.45
2023-03-03T15:29:13.146Z,18.92
2023-03-03T15:31:58.925Z,17.77
2023-03-03T15:34:47.282Z,18.55
2023-03-03T15:37:39.353Z,18.90
2023-03-03T15:40:27.041Z,18.45
2023-03-03T15:43:25.011Z,18.98
2023-03-03T15:45:58.230Z,18.88
2023-03-03T15:48:51.248Z,18.90
2023-03-03T15:52:03.488Z,19.05
2023-03-03T15:54:36.527Z,18.60
2023-03-03T15:57:30.712Z,19.25
2023-03-03T16:00:25.433Z,19.98
2023-03-03T16:02:58.954Z,20.52
2023-03-03T16:05:31.678Z,20.05
2023-03-03T16:08:37.939Z,19.27
2023-03-03T16:11:08.620Z,19.77
2023-03-03T16:14:07.668Z,21.05
2023-03-03T16:17:08.613Z,19.63
2023-03-03T16:19:53.630Z,20.23
2023-03-03T16:22:40.914Z,19.73
2023-03-03T16:25:36.610Z,19.70
2023-03-03T16:28:34.798Z,21.17
2023-03-03T16:31:11.068Z,20.75
2023-03-03T16:33:52.186Z,20.08
2023-03-03T16:36:28.791Z,19.80
2023-03-03T16:39:02.081Z,19.73
2023-03-03T16:41:57.049Z,20.40
2023-03-03T16:44:53.975Z,22.00
2023-03-03T16:47:23.445Z,21.48
2023-03-03T16:50:16.550Z,21.73
2023-03-03T16:52:56.384Z,20.23
2023-03-03T16:55:32.025Z,20.70
2023-03-03T16:58:07.701Z,21.60
2023-03-03T17:00:58.606Z,20.40
2023-03-03T17:03:56.335Z,21.33
2023-03-03T17:06:31.604Z,20.48
2023-03-03T17:09:10.901Z,23.40
2023-03-03T17:12:08.548Z,22.90
2023-03-03T17:15:03.351Z,22.63
2023-03-03T17:17:43.544Z,21.45
2023-03-03T17:20:34.765Z,20.52
2023-03-03T17:23:20.226Z,21.67
2023-03-03T17:25:53.276Z,22.30
2023-03-03T17:31:20.022Z,21.88
2023-03-03T17:34:19.688Z,21.40
2023-03-03T17:36:59.255Z,21.75
2023-03-03T17:39:59.434Z,22.77
2023-03-03T17:42:36.290Z,23.83
2023-03-03T17:45:15.142Z,25.08
2023-03-03T17:47:53.497Z,23.48
2023-03-03T17:50:35.272Z,23.15
2023-03-03T17:53:40.340Z,23.63
2023-03-03T17:56:16.036Z,24.83
2023-03-03T17:59:04.712Z,27.02
2023-03-03T18:02:30.384Z,26.25
2023-03-03T18:05:26.425Z,23.23
2023-03-03T18:08:20.756Z,26.35
2023-03-03T18:11:07.731Z,26.50
2023-03-03T18:13:43.393Z,25.13
2023-03-03T18:16:47.865Z,24.15
2023-03-03T18:19:25.741Z,23.98
2023-03-03T18:22:05.723Z,24.15
2023-03-03T18:24:55.895Z,24.42
2023-03-03T18:27:25.340Z,26.20
2023-03-03T18:30:18.342Z,28.98
2023-03-03T18:32:56.846Z,28.45
2023-03-03T18:35:25.715Z,28.35
2023-03-03T18:37:52.773Z,26.73
2023-03-03T18:40:32.622Z,28.40
2023-03-03T18:42:59.907Z,28.23
2023-03-03T18:45:29.162Z,26.88
2023-03-03T18:48:04.881Z,27.90
2023-03-03T18:50:34.201Z,26.48
2023-03-03T18:53:18.338Z,26.67
2023-03-03T18:55:51.237Z,28.10
2023-03-03T18:58:18.019Z,26.25
2023-03-03T19:00:59.713Z,24.90
2023-03-03T19:03:46.757Z,25.00
2023-03-03T19:06:30.061Z,24.23
2023-03-03T19:11:33.506Z,25.10
2023-03-03T19:16:39.448Z,24.88
2023-03-03T19:19:17.697Z,24.38
2023-03-03T19:21:51.152Z,26.00
2023-03-03T19:24:33.808Z,24.65
2023-03-03T19:27:28.135Z,23.30
2023-03-03T19:30:07.085Z,24.40
2023-03-03T19:33:00.254Z,25.63
2023-03-03T19:35:54.629Z,24.65
2023-03-03T19:38:53.374Z,25.25
2023-03-03T19:41:25.897Z,24.70
2023-03-03T19:44:11.911Z,23.90
2023-03-03T19:47:23.550Z,23.42
2023-03-03T19:50:05.220Z,24.05
2023-03-03T19:52:49.086Z,22.77
2023-03-03T19:55:28.149Z,23.73
2023-03-03T19:58:20.860Z,22.00
2023-03-03T20:00:55.749Z,21.65
2023-03-03T20:03:52.830Z,21.40
2023-03-03T20:06:37.719Z,23.42
2023-03-03T20:09:04.470Z,21.52
2023-03-03T20:11:56.430Z,21.98
2023-03-03T20:14:37.995Z,22.73
2023-03-03T20:17:30.517Z,21.15
2023-03-03T20:20:03.632Z,22.90
2023-03-03T20:22:46.729Z,21.98
2023-03-03T20:28:23.488Z,22.33
2023-03-03T20:31:05.526Z,23.30
2023-03-03T20:33:54.216Z,22.65
2023-03-03T20:36:32.921Z,26.33
2023-03-03T20:39:14.249Z,24.00
2023-03-03T20:41:40.966Z,24.52
2023-03-03T20:44:17.180Z,24.30
2023-03-03T20:47:15.279Z,23.60
2023-03-03T20:49:51.053Z,23.00
2023-03-03T20:52:42.606Z,23.33
2023-03-03T20:55:14.375Z,22.73
2023-03-03T20:58:09.057Z,24.67
2023-03-03T21:00:55.188Z,24.27
2023-03-03T21:03:35.580Z,24.08
2023-03-03T21:06:02.332Z,25.52
2023-03-03T21:08:46.808Z,24.70
2023-03-03T21:11:15.739Z,24.92
2023-03-03T21:13:47.979Z,25.77
2023-03-03T21:16:21.210Z,26.25
2023-03-03T21:19:03.186Z,27.15
2023-03-03T21:21:39.460Z,25.15
2023-03-03T21:24:07.591Z,27.88
2023-03-03T21:26:49.545Z,26.45
2023-03-03T21:29:19.299Z,25.42
2023-03-03T21:31:57.098Z,26.55
2023-03-03T21:34:32.917Z,25.65
2023-03-03T21:37:02.135Z,25.75
2023-03-03T21:39:38.185Z,27.05
2023-03-03T21:42:06.435Z,25.45
2023-03-03T21:44:44.663Z,25.27
2023-03-03T21:47:15.133Z,27.02
2023-03-03T21:49:43.972Z,25.52
2023-03-03T21:52:12.499Z,26.20
2023-03-03T21:54:39.568Z,26.20
2023-03-03T21:57:06.607Z,26.65
2023-03-03T21:59:33.448Z,24.38
2023-03-03T22:02:00.228Z,25.85
2023-03-03T22:04:27.155Z,26.00
2023-03-03T22:06:54.144Z,26.42
2023-03-03T22:09:21.029Z,26.17
2023-03-03T22:11:48.129Z,26.38
2023-03-03T22:14:15.195Z,26.25
2023-03-03T22:16:42.244Z,26.10
2023-03-03T22:19:09.522Z,26.45
2023-03-03T22:21:37.564Z,26.25
2023-03-03T22:24:05.357Z,26.95
2023-03-03T22:26:32.223Z,26.85
2023-03-03T22:28:59.028Z,28.35
2023-03-03T22:31:25.821Z,29.80
2023-03-03T22:33:52.580Z,28.23
2023-03-03T22:36:19.326Z,30.15
2023-03-03T22:38:47.489Z,29.30
2023-03-03T22:41:14.837Z,29.10
2023-03-03T22:43:42.085Z,27.33
2023-03-03T22:46:09.825Z,29.13
2023-03-03T22:48:38.120Z,28.55
2023-03-03T22:51:05.580Z,30.02
2023-03-03T22:53:32.891Z,29.13
2023-03-03T22:55:59.974Z,29.55
2023-03-03T22:58:26.701Z,28.58
2023-03-03T23:00:54.428Z,28.45
2023-03-03T23:03:22.479Z,27.75
2023-03-03T23:05:51.732Z,27.40
2023-03-03T23:08:19.387Z,28.08
2023-03-03T23:10:46.335Z,27.13
2023-03-03T23:13:13.726Z,28.50
2023-03-03T23:15:40.492Z,26.73
2023-03-03T23:18:07.509Z,30.13
2023-03-03T23:20:34.582Z,26.95
2023-03-03T23:23:01.433Z,28.77
2023-03-03T23:25:28.841Z,28.70
2023-03-03T23:27:56.643Z,28.00
2023-03-03T23:30:23.862Z,28.63
2023-03-03T23:32:50.908Z,26.80
2023-03-03T23:35:18.481Z,27.23
2023-03-03T23:37:46.061Z,28.55
2023-03-03T23:40:15.601Z,26.77
2023-03-03T23:42:42.443Z,26.92
2023-03-03T23:45:11.094Z,27.75
2023-03-03T23:47:37.968Z,27.63
2023-03-03T23:50:05.403Z,27.17
2023-03-03T23:52:32.359Z,26.70
2023-03-03T23:54:59.144Z,27.80
2023-03-03T23:57:25.896Z,26.10
2023-03-03T23:59:52.638Z,26.40
